14°C
Porth, Newquay, Cornwall. UK  Tell A Friend
 Ad **Ad
Updated24/05/2017 05:00 
 


Nearby METAR Reports From


Metar Station     Metar Station     Metar Station     Metar Station     Metar Station
EGHQ Newquay     EGDR Culdrose (navy)     EGDX ST Athan raf     EGDY Yeovitilton (navy)     EGFF Cardiff
EGHH Bournemouth     EGBB Birmingham     EGKA Shoreham-By-Sea     EGOP Pembry Sands     EGTE Exeter Airport
EGGD Bristol     EGHE Scilly     EGJA Alderney     EGJB Guernsey     EGJJ Jersey
France       LFRC Cherbourg/Mauper     LFRB Brest/Guipavas     LFRO Lannion/Servel        
More Metars Here                                
EGHQ - Newquay, United Kingdom
Updated: 23/05/2017 21:20

NOT Current
Fog, Overcast
Fog, Overcast
 Wind from W
Wind: W 8 mph , 13 km/h, 7 kts
Temperature: 13°C
Dew Point: 12°C
Humidity: 94%
Barometer: 1026 hPa
Summary: Fog
Clouds: Overcast
Visibility: 0 mile , 1 km
Cloud details: Overcast 61 m
2017/05/23 20:20 EGHQ 232020Z 26007KT 0600 R30/P1500 FG OVC002 13/12 Q1026
EGDR - Culdrose (navy), United Kingdom
Updated: 24/05/2017 04:50
Mostly Cloudy
Mostly Cloudy
 Wind from NE
Wind: NE 2 mph , 4 km/h, 2 kts
Temperature: 13°C
Dew Point: 13°C
Humidity: 100%
Barometer: 1026 hPa
Clouds: Mostly Cloudy
Visibility: 6 miles , 10 km
Cloud details: Few Clouds 213 m
Mostly Cloudy 305 m
2017/05/24 03:50 EGDR 240350Z 04002KT 9999 FEW007 BKN010 13/13 Q1026 REDZ GRN
 
EGHC - Lands End, United Kingdom
Updated: 23/05/2017 15:20

NOT Current
Fog
Fog
 Wind from W
Wind: W 7 mph , 11 km/h, 6 kts
Temperature: 13°C
Dew Point: 13°C
Humidity: 100%
Barometer: 1024 hPa
Summary: Fog
Visibility: 0 mile , 0 km
2017/05/23 14:20 EGHC 231420Z 26006KT 0050 FG VV/// 13/13 Q1024
EGHE - Scilly Saint Mar, United Kingdom
Updated: 23/05/2017 16:50

NOT Current
Haze, Mostly cloudy
Haze, Mostly cloudy
 Wind from WSW
Wind: WSW 8 mph , 13 km/h, 7 kts
Temperature: 16°C
Dew Point: 14°C
Humidity: 88%
Barometer: 1025 hPa
Summary: Haze
Clouds: Mostly Cloudy
Visibility: 2 miles , 4 km
Cloud details: Partly Cloudy 152 m
Mostly Cloudy 274 m
2017/05/23 15:50 EGHE 231550Z 25007KT 4000 HZ SCT005 BKN009 16/14 Q1025
 
EGTE - Exeter Airport, United Kingdom
Updated: 24/05/2017 02:20

NOT Current
Mostly Cloudy
Mostly Cloudy
 Wind from varies
Wind: varies 3 mph , 6 km/h, 3 kts
Temperature: 14°C
Dew Point: 12°C
Humidity: 88%
Barometer: 1026 hPa
Clouds: Mostly Cloudy
Visibility: 6 miles , 10 km
Cloud details: Few Clouds 305 m
Mostly Cloudy 427 m
2017/05/24 01:20 EGTE 240120Z VRB03KT 9999 FEW010 BKN014 14/12 Q1026
EGOP - Pembry Sands, United Kingdom
Updated: 24/05/2017 03:50

NOT Current

 Wind from E
Wind: E 2 mph , 4 km/h, 2 kts
Temperature: 12°C
Dew Point: 12°C
Humidity: 100%
Barometer: 1026 hPa
Visibility: 0 mile , 0 km
2017/05/24 02:50 EGOP 240250Z AUTO 09002KT 0200 // VV/// 12/12 Q1026
 
EGDX - St Athan Raf, United Kingdom
Updated: 24/05/2017 03:50

NOT Current
Mostly Cloudy
Mostly Cloudy
 Wind from NW
Wind: NW 8 mph , 13 km/h, 7 kts
Temperature: 13°C
Dew Point: 13°C
Humidity: 100%
Barometer: 1025 hPa
Clouds: Mostly Cloudy
Visibility: 1 mile , 2 km
Cloud details: Mostly Cloudy 30 m
Mostly Cloudy 396 m
2017/05/24 02:50 EGDX 240250Z AUTO 31007KT 1600 BKN001/// BKN013/// 13/13 Q1025
EGFF - Cardiff-Wales Ar, United Kingdom
Updated: 24/05/2017 04:50
Mostly Cloudy
Mostly Cloudy
 Wind from WNW
Wind: WNW 9 mph , 15 km/h, 8 kts
Temperature: 12°C
Dew Point: 12°C
Humidity: 100%
Barometer: 1025 hPa
Clouds: Mostly Cloudy
Visibility: 5 miles , 8 km
Cloud details: Mostly Cloudy 213 m
2017/05/24 03:50 EGFF 240350Z AUTO 30008KT 8000 BKN007 12/12 Q1025
 
EGDY - Yeovilton (navy), United Kingdom
Updated: 24/05/2017 03:50

NOT Current
Overcast
Overcast
 Wind from WNW
Wind: WNW 7 mph , 11 km/h, 6 kts
Temperature: 14°C
Dew Point: 13°C
Humidity: 94%
Barometer: 1025 hPa
Clouds: Overcast
Visibility: 6 miles , 10 km
Cloud details: Mostly Cloudy 183 m
Overcast 366 m
2017/05/24 02:50 EGDY 240250Z 30006KT 9999 BKN006 OVC012 14/13 Q1025 YLO1
EGGD - Bristol/Lulsgate, United Kingdom
Updated: 24/05/2017 04:50
Fog
Fog
 Wind from W
Wind: W 6 mph , 9 km/h, 5 kts
Temperature: 12°C
Dew Point: 12°C
Humidity: 100%
Barometer: 1025 hPa
Summary: Fog
Visibility: 0 mile , 0 km
2017/05/24 03:50 EGGD 240350Z AUTO 26005KT 0100 R27/0325 FG VV/// 12/12 Q1025
 
EGBB - Birmingham Airpo, United Kingdom
Updated: 24/05/2017 04:50
Clear
Clear
 Wind from varies
Wind: varies 2 mph , 4 km/h, 2 kts
Temperature: 12°C
Dew Point: 12°C
Humidity: 100%
Barometer: 1024 hPa
Summary: Clear
Visibility: greater than 7 miles , 10 km
2017/05/24 03:50 EGBB 240350Z VRB02KT CAVOK 12/12 Q1024
EGHH - Bournemouth Airp, United Kingdom
Updated: 23/05/2017 23:20

NOT Current
Mostly Cloudy
Mostly Cloudy
 Wind from NW
Wind: NW 6 mph , 9 km/h, 5 kts
Temperature: 16°C
Dew Point: 14°C
Humidity: 88%
Barometer: 1025 hPa
Clouds: Mostly Cloudy
Visibility: 6 miles , 10 km
Cloud details: Mostly Cloudy 823 m
2017/05/23 22:20 EGHH 232220Z 31005KT 9999 BKN027 16/14 Q1025
 
EGKA - Shoreham-By-Sea, United Kingdom
Updated: 23/05/2017 19:50

NOT Current
Nearby fog, Partly cloudy
Nearby fog, Partly cloudy
 Wind from WSW
Wind: WSW 13 mph , 20 km/h, 11 kts
Temperature: 15°C
Dew Point: 14°C
Humidity: 94%
Barometer: 1023 hPa
Summary: Nearby Fog
Clouds: Partly Cloudy
Visibility: 6 miles , 10 km
Cloud details: Partly Cloudy 30 m
Partly Cloudy 762 m
2017/05/23 18:50 EGKA 231850Z 24011KT 9999 2500SE VCFG SCT001 SCT025 15/14 Q1023
EGJA - Alderney/Channel, United Kingdom
Updated: 23/05/2017 18:20

NOT Current
Fog, Overcast
Fog, Overcast
 Wind from WSW
Wind: WSW 8 mph , 13 km/h, 7 kts
Temperature: 13°C
Dew Point: 13°C
Humidity: 100%
Barometer: 1025 hPa
Summary: Fog
Clouds: Overcast
Visibility: 0 mile , 0 km
Cloud details: Overcast 0 m
2017/05/23 17:20 EGJA 231720Z 24007KT 0450 R26/0700 FG OVC000 13/13 Q1025
 
EGJB - Guernsey Airport, United Kingdom
Updated: 24/05/2017 04:50
Mist, Mostly cloudy
Mist, Mostly cloudy
 Wind from N
Wind: N 5 mph , 7 km/h, 4 kts
Temperature: 13°C
Dew Point: 13°C
Humidity: 100%
Barometer: 1026 hPa
Summary: Mist
Clouds: Mostly Cloudy
Visibility: 2 miles , 4 km
Cloud details: Mostly Cloudy 549 m
2017/05/24 03:50 EGJB 240350Z 01004KT 340V040 4000 BR BKN018 13/13 Q1026
EGJJ - Jersey Airport, United Kingdom
Updated: 24/05/2017 04:50
Fog, Overcast
Fog, Overcast
 Wind from NW
Wind: NW 3 mph , 6 km/h, 3 kts
Temperature: 11°C
Dew Point: 11°C
Humidity: 100%
Barometer: 1026 hPa
Summary: Fog
Clouds: Overcast
Visibility: 0 mile , 0 km
Cloud details: Overcast 0 m
2017/05/24 03:50 EGJJ 240350Z 32003KT 0100 FG OVC000 11/11 Q1026 TEMPO 1200 BCFG SCT000
 
LFRC - Cherbourg/Mauper, France
Updated: 24/05/2017 04:30
Mist
Mist
 Wind from WNW
Wind: WNW 6 mph , 9 km/h, 5 kts
Temperature: 13°C
Dew Point: 13°C
Humidity: 100%
Barometer: 1025 hPa
Summary: Mist
Visibility: 2 miles , 3 km
2017/05/24 03:30 LFRC 240330Z AUTO 29005KT 3200 BR VV/// 13/13 Q1025
LFRB - Brest/Guipavas, France
Updated: 24/05/2017 04:30

 Wind from NE
Wind: NE 7 mph , 11 km/h, 6 kts
Visibility: 0 mile , 1 km
2017/05/24 03:30 LFRB 240330Z AUTO 05006KT 0800 0750 R25/0900N R07/1300N FG VV/// 13/13 Q1026 TEMPO 0500 FG
 
LFRO - Lannion/Servel, France
Updated: 24/05/2017 04:30
Mist
Mist
 Wind from calm
Wind: Calm, 0 kts
Temperature: 13°C
Dew Point: 13°C
Humidity: 100%
Barometer: 1026 hPa
Summary: Mist
Visibility: 2 miles , 4 km
2017/05/24 03:30 LFRO 240330Z AUTO 00000KT 3800 BR VV/// 13/13 Q1026

# Note Plymouth airport closed 23/12/2011

Metar, brief description

METAR is a format for reporting weather information. A METAR weather report is predominantly used by pilots in fulfillment of a part of a pre-flight weather briefing, and by meteorologists, who use aggregated METAR information to assist in weather forecasting.

Raw METAR is the most popular format in the world for the transmission of weather data. Each METAR report contains essential information about the current weather conditions: Temperature, Dew Point, Barometric Pressure, Wind Speed and Direction, Visibility, Clouds Cover, Current Weather (Rain, Thunderstorms, Hail, Snow and so on...), here is an example of a raw metar report for EGHQ (Newquay airport).
METAR not available